sensor_id;sensor_type;location;lat;lon;timestamp;temperature;humidity
2487;DHT22;1254;49.144;8.212;2022-08-04T00:02:09;24.80;99.90
2487;DHT22;1254;49.144;8.212;2022-08-04T00:05:03;24.70;99.90
2487;DHT22;1254;49.144;8.212;2022-08-04T00:07:47;24.60;99.90
2487;DHT22;1254;49.144;8.212;2022-08-04T00:10:17;24.50;99.90
2487;DHT22;1254;49.144;8.212;2022-08-04T00:12:50;24.40;99.90
2487;DHT22;1254;49.144;8.212;2022-08-04T00:15:17;24.40;99.90
2487;DHT22;1254;49.144;8.212;2022-08-04T00:17:54;24.40;99.90
2487;DHT22;1254;49.144;8.212;2022-08-04T00:20:23;24.20;99.90
2487;DHT22;1254;49.144;8.212;2022-08-04T00:22:54;24.10;99.90
2487;DHT22;1254;49.144;8.212;2022-08-04T00:25:22;23.70;99.90
2487;DHT22;1254;49.144;8.212;2022-08-04T00:27:49;23.50;99.90
2487;DHT22;1254;49.144;8.212;2022-08-04T00:30:16;23.60;99.90
2487;DHT22;1254;49.144;8.212;2022-08-04T00:32:42;23.60;99.90
2487;DHT22;1254;49.144;8.212;2022-08-04T00:35:12;23.70;99.90
2487;DHT22;1254;49.144;8.212;2022-08-04T00:37:39;23.70;99.90
2487;DHT22;1254;49.144;8.212;2022-08-04T00:54:36;23.50;99.90
2487;DHT22;1254;49.144;8.212;2022-08-04T01:16:15;23.40;99.90
2487;DHT22;1254;49.144;8.212;2022-08-04T01:27:25;23.40;99.90
2487;DHT22;1254;49.144;8.212;2022-08-04T01:29:56;23.50;99.90
2487;DHT22;1254;49.144;8.212;2022-08-04T01:32:58;23.50;99.90
2487;DHT22;1254;49.144;8.212;2022-08-04T01:35:47;23.50;99.90
2487;DHT22;1254;49.144;8.212;2022-08-04T01:40:44;23.20;99.90
2487;DHT22;1254;49.144;8.212;2022-08-04T01:43:12;23.00;99.90
2487;DHT22;1254;49.144;8.212;2022-08-04T01:45:40;22.90;99.90
2487;DHT22;1254;49.144;8.212;2022-08-04T01:48:07;22.90;99.90
2487;DHT22;1254;49.144;8.212;2022-08-04T01:50:35;22.60;99.90
2487;DHT22;1254;49.144;8.212;2022-08-04T01:53:03;22.70;99.90
2487;DHT22;1254;49.144;8.212;2022-08-04T01:55:29;22.60;99.90
2487;DHT22;1254;49.144;8.212;2022-08-04T01:57:59;22.60;99.90
2487;DHT22;1254;49.144;8.212;2022-08-04T02:00:27;22.50;99.90
2487;DHT22;1254;49.144;8.212;2022-08-04T02:02:55;22.60;99.90
2487;DHT22;1254;49.144;8.212;2022-08-04T02:05:24;22.70;99.90
2487;DHT22;1254;49.144;8.212;2022-08-04T02:08:10;22.70;99.90
2487;DHT22;1254;49.144;8.212;2022-08-04T02:16:03;22.70;99.90
2487;DHT22;1254;49.144;8.212;2022-08-04T02:18:45;22.60;99.90
2487;DHT22;1254;49.144;8.212;2022-08-04T02:21:23;22.50;99.90
2487;DHT22;1254;49.144;8.212;2022-08-04T02:23:55;22.40;99.90
2487;DHT22;1254;49.144;8.212;2022-08-04T02:26:27;22.30;99.90
2487;DHT22;1254;49.144;8.212;2022-08-04T02:29:14;22.30;99.90
2487;DHT22;1254;49.144;8.212;2022-08-04T02:31:55;22.20;99.90
2487;DHT22;1254;49.144;8.212;2022-08-04T02:34:46;22.20;99.90
2487;DHT22;1254;49.144;8.212;2022-08-04T02:37:16;22.10;99.90
2487;DHT22;1254;49.144;8.212;2022-08-04T02:39:44;22.10;99.90
2487;DHT22;1254;49.144;8.212;2022-08-04T02:42:11;21.90;99.90
2487;DHT22;1254;49.144;8.212;2022-08-04T02:44:38;21.70;99.90
2487;DHT22;1254;49.144;8.212;2022-08-04T02:47:05;21.60;99.90
2487;DHT22;1254;49.144;8.212;2022-08-04T02:49:36;21.60;99.90
2487;DHT22;1254;49.144;8.212;2022-08-04T02:52:03;21.40;99.90
2487;DHT22;1254;49.144;8.212;2022-08-04T02:54:33;21.40;99.90
2487;DHT22;1254;49.144;8.212;2022-08-04T02:57:02;21.50;99.90
2487;DHT22;1254;49.144;8.212;2022-08-04T03:05:21;21.50;99.90
2487;DHT22;1254;49.144;8.212;2022-08-04T03:19:52;21.30;99.90
2487;DHT22;1254;49.144;8.212;2022-08-04T03:23:44;21.20;99.90
2487;DHT22;1254;49.144;8.212;2022-08-04T03:31:53;21.10;99.90
2487;DHT22;1254;49.144;8.212;2022-08-04T04:08:33;20.20;99.90
2487;DHT22;1254;49.144;8.212;2022-08-04T04:19:35;20.20;99.90
2487;DHT22;1254;49.144;8.212;2022-08-04T04:22:15;20.30;99.90
2487;DHT22;1254;49.144;8.212;2022-08-04T04:27:42;20.40;99.90
2487;DHT22;1254;49.144;8.212;2022-08-04T04:30:41;20.40;99.90
2487;DHT22;1254;49.144;8.212;2022-08-04T04:35:53;20.50;99.90
2487;DHT22;1254;49.144;8.212;2022-08-04T04:41:15;20.60;99.90
2487;DHT22;1254;49.144;8.212;2022-08-04T04:46:49;20.80;99.90
2487;DHT22;1254;49.144;8.212;2022-08-04T04:52:39;21.00;99.90
2487;DHT22;1254;49.144;8.212;2022-08-04T04:55:55;21.30;99.90
2487;DHT22;1254;49.144;8.212;2022-08-04T04:58:22;21.20;99.90
2487;DHT22;1254;49.144;8.212;2022-08-04T05:14:37;21.50;99.90
2487;DHT22;1254;49.144;8.212;2022-08-04T05:19:59;21.30;99.90
2487;DHT22;1254;49.144;8.212;2022-08-04T05:22:47;21.20;99.90
2487;DHT22;1254;49.144;8.212;2022-08-04T05:27:57;21.10;99.90
2487;DHT22;1254;49.144;8.212;2022-08-04T05:30:26;21.10;99.90
2487;DHT22;1254;49.144;8.212;2022-08-04T05:33:03;21.30;99.90
2487;DHT22;1254;49.144;8.212;2022-08-04T05:35:42;21.50;99.90
2487;DHT22;1254;49.144;8.212;2022-08-04T05:38:11;21.70;99.90
2487;DHT22;1254;49.144;8.212;2022-08-04T05:40:39;21.80;99.90
2487;DHT22;1254;49.144;8.212;2022-08-04T05:43:07;22.10;99.90
2487;DHT22;1254;49.144;8.212;2022-08-04T05:45:34;22.30;99.90
2487;DHT22;1254;49.144;8.212;2022-08-04T05:48:01;22.50;99.90
2487;DHT22;1254;49.144;8.212;2022-08-04T05:50:31;22.70;99.90
2487;DHT22;1254;49.144;8.212;2022-08-04T05:52:59;22.80;99.90
2487;DHT22;1254;49.144;8.212;2022-08-04T05:55:28;22.90;99.90
2487;DHT22;1254;49.144;8.212;2022-08-04T05:57:56;23.00;99.90
2487;DHT22;1254;49.144;8.212;2022-08-04T06:00:24;23.10;99.90
2487;DHT22;1254;49.144;8.212;2022-08-04T06:02:53;23.30;99.90
2487;DHT22;1254;49.144;8.212;2022-08-04T06:05:20;23.40;99.90
2487;DHT22;1254;49.144;8.212;2022-08-04T06:07:48;23.60;99.90
2487;DHT22;1254;49.144;8.212;2022-08-04T06:10:14;23.80;99.90
2487;DHT22;1254;49.144;8.212;2022-08-04T06:12:53;23.80;99.90
2487;DHT22;1254;49.144;8.212;2022-08-04T06:15:21;23.80;99.90
2487;DHT22;1254;49.144;8.212;2022-08-04T06:17:53;23.90;99.90
2487;DHT22;1254;49.144;8.212;2022-08-04T06:20:26;24.00;99.90
2487;DHT22;1254;49.144;8.212;2022-08-04T06:22:55;24.00;99.90
2487;DHT22;1254;49.144;8.212;2022-08-04T06:25:30;24.10;99.90
2487;DHT22;1254;49.144;8.212;2022-08-04T06:27:58;24.20;99.90
2487;DHT22;1254;49.144;8.212;2022-08-04T06:30:27;24.30;99.90
2487;DHT22;1254;49.144;8.212;2022-08-04T06:32:56;24.10;99.90
2487;DHT22;1254;49.144;8.212;2022-08-04T06:35:26;24.30;99.90
2487;DHT22;1254;49.144;8.212;2022-08-04T06:37:54;24.20;99.90
2487;DHT22;1254;49.144;8.212;2022-08-04T06:40:23;24.40;99.90
2487;DHT22;1254;49.144;8.212;2022-08-04T06:42:51;24.60;99.90
2487;DHT22;1254;49.144;8.212;2022-08-04T06:45:19;24.80;99.90
2487;DHT22;1254;49.144;8.212;2022-08-04T06:47:47;24.90;99.90
2487;DHT22;1254;49.144;8.212;2022-08-04T06:50:14;24.90;99.90
2487;DHT22;1254;49.144;8.212;2022-08-04T06:52:43;25.00;99.90
2487;DHT22;1254;49.144;8.212;2022-08-04T06:55:10;25.30;99.90
2487;DHT22;1254;49.144;8.212;2022-08-04T06:57:39;25.40;99.90
2487;DHT22;1254;49.144;8.212;2022-08-04T07:00:10;25.60;99.90
2487;DHT22;1254;49.144;8.212;2022-08-04T07:02:45;25.60;99.90
2487;DHT22;1254;49.144;8.212;2022-08-04T07:05:13;25.50;99.90
2487;DHT22;1254;49.144;8.212;2022-08-04T07:07:41;25.40;99.90
2487;DHT22;1254;49.144;8.212;2022-08-04T07:10:09;25.50;99.90
2487;DHT22;1254;49.144;8.212;2022-08-04T07:12:39;25.60;99.90
2487;DHT22;1254;49.144;8.212;2022-08-04T07:15:07;25.80;99.90
2487;DHT22;1254;49.144;8.212;2022-08-04T07:17:35;26.10;99.90
2487;DHT22;1254;49.144;8.212;2022-08-04T07:20:03;26.10;99.90
2487;DHT22;1254;49.144;8.212;2022-08-04T07:22:30;26.10;99.90
2487;DHT22;1254;49.144;8.212;2022-08-04T07:24:58;26.10;99.90
2487;DHT22;1254;49.144;8.212;2022-08-04T07:27:25;26.30;99.90
2487;DHT22;1254;49.144;8.212;2022-08-04T07:29:52;26.60;99.90
2487;DHT22;1254;49.144;8.212;2022-08-04T07:32:20;26.90;99.90
2487;DHT22;1254;49.144;8.212;2022-08-04T07:34:51;26.80;99.90
2487;DHT22;1254;49.144;8.212;2022-08-04T07:37:18;26.50;99.90
2487;DHT22;1254;49.144;8.212;2022-08-04T07:39:45;26.40;99.90
2487;DHT22;1254;49.144;8.212;2022-08-04T07:42:11;26.90;99.90
2487;DHT22;1254;49.144;8.212;2022-08-04T07:44:38;26.70;99.90
2487;DHT22;1254;49.144;8.212;2022-08-04T07:47:06;27.10;99.90
2487;DHT22;1254;49.144;8.212;2022-08-04T07:49:34;27.20;99.90
2487;DHT22;1254;49.144;8.212;2022-08-04T07:52:02;27.30;99.90
2487;DHT22;1254;49.144;8.212;2022-08-04T07:54:29;27.30;99.90
2487;DHT22;1254;49.144;8.212;2022-08-04T07:56:56;27.30;99.90
2487;DHT22;1254;49.144;8.212;2022-08-04T07:59:22;27.40;99.90
2487;DHT22;1254;49.144;8.212;2022-08-04T08:01:50;27.70;99.90
2487;DHT22;1254;49.144;8.212;2022-08-04T08:04:17;27.80;99.90
2487;DHT22;1254;49.144;8.212;2022-08-04T08:06:44;28.00;99.90
2487;DHT22;1254;49.144;8.212;2022-08-04T08:09:16;28.00;99.90
2487;DHT22;1254;49.144;8.212;2022-08-04T08:11:45;28.10;99.90
2487;DHT22;1254;49.144;8.212;2022-08-04T08:14:15;28.20;99.90
2487;DHT22;1254;49.144;8.212;2022-08-04T08:16:43;28.40;99.90
2487;DHT22;1254;49.144;8.212;2022-08-04T08:19:09;28.40;99.90
2487;DHT22;1254;49.144;8.212;2022-08-04T08:21:36;28.70;99.90
2487;DHT22;1254;49.144;8.212;2022-08-04T08:24:04;28.60;99.90
2487;DHT22;1254;49.144;8.212;2022-08-04T08:26:31;28.70;99.90
2487;DHT22;1254;49.144;8.212;2022-08-04T08:28:57;28.80;99.90
2487;DHT22;1254;49.144;8.212;2022-08-04T08:31:24;29.10;99.90
2487;DHT22;1254;49.144;8.212;2022-08-04T08:33:51;29.40;99.90
2487;DHT22;1254;49.144;8.212;2022-08-04T08:36:38;29.30;99.90
2487;DHT22;1254;49.144;8.212;2022-08-04T08:39:15;29.60;99.90
2487;DHT22;1254;49.144;8.212;2022-08-04T08:53:44;29.80;99.90
2487;DHT22;1254;49.144;8.212;2022-08-04T09:05:16;30.20;99.90
2487;DHT22;1254;49.144;8.212;2022-08-04T09:08:14;30.40;99.90
2487;DHT22;1254;49.144;8.212;2022-08-04T09:10:48;30.50;99.90
2487;DHT22;1254;49.144;8.212;2022-08-04T09:13:35;30.50;99.90
2487;DHT22;1254;49.144;8.212;2022-08-04T09:16:21;30.40;99.90
2487;DHT22;1254;49.144;8.212;2022-08-04T09:24:24;30.80;99.90
2487;DHT22;1254;49.144;8.212;2022-08-04T09:27:00;30.80;99.90
2487;DHT22;1254;49.144;8.212;2022-08-04T09:29:35;31.20;99.90
2487;DHT22;1254;49.144;8.212;2022-08-04T09:37:32;31.60;99.90
2487;DHT22;1254;49.144;8.212;2022-08-04T09:40:06;31.30;99.90
2487;DHT22;1254;49.144;8.212;2022-08-04T09:42:51;31.60;99.90
2487;DHT22;1254;49.144;8.212;2022-08-04T09:45:28;31.60;99.90
2487;DHT22;1254;49.144;8.212;2022-08-04T09:48:09;31.90;99.90
2487;DHT22;1254;49.144;8.212;2022-08-04T09:50:39;32.30;99.90
2487;DHT22;1254;49.144;8.212;2022-08-04T10:01:00;32.60;99.90
2487;DHT22;1254;49.144;8.212;2022-08-04T10:03:32;32.60;99.90
2487;DHT22;1254;49.144;8.212;2022-08-04T10:08:53;32.80;99.90
2487;DHT22;1254;49.144;8.212;2022-08-04T10:11:52;32.70;99.90
2487;DHT22;1254;49.144;8.212;2022-08-04T10:14:48;33.20;99.90
2487;DHT22;1254;49.144;8.212;2022-08-04T10:17:25;33.20;99.90
2487;DHT22;1254;49.144;8.212;2022-08-04T10:20:50;32.90;99.90
2487;DHT22;1254;49.144;8.212;2022-08-04T10:26:24;33.70;99.90
2487;DHT22;1254;49.144;8.212;2022-08-04T10:28:58;33.70;99.90
2487;DHT22;1254;49.144;8.212;2022-08-04T10:31:29;33.80;99.90
2487;DHT22;1254;49.144;8.212;2022-08-04T10:34:04;33.80;99.90
2487;DHT22;1254;49.144;8.212;2022-08-04T10:36:43;33.70;99.90
2487;DHT22;1254;49.144;8.212;2022-08-04T10:39:17;33.80;99.90
2487;DHT22;1254;49.144;8.212;2022-08-04T10:42:12;34.20;99.90
2487;DHT22;1254;49.144;8.212;2022-08-04T10:44:59;34.30;99.90
2487;DHT22;1254;49.144;8.212;2022-08-04T10:47:58;34.20;99.90
2487;DHT22;1254;49.144;8.212;2022-08-04T10:50:28;34.20;99.90
2487;DHT22;1254;49.144;8.212;2022-08-04T10:53:21;34.60;99.90
2487;DHT22;1254;49.144;8.212;2022-08-04T10:55:49;34.50;99.90
2487;DHT22;1254;49.144;8.212;2022-08-04T10:58:20;34.90;99.90
2487;DHT22;1254;49.144;8.212;2022-08-04T11:00:48;35.30;99.90
2487;DHT22;1254;49.144;8.212;2022-08-04T11:03:23;35.40;99.90
2487;DHT22;1254;49.144;8.212;2022-08-04T11:05:53;35.40;99.90
2487;DHT22;1254;49.144;8.212;2022-08-04T11:08:27;35.60;99.90
2487;DHT22;1254;49.144;8.212;2022-08-04T11:14:09;35.40;99.90
2487;DHT22;1254;49.144;8.212;2022-08-04T11:16:48;35.10;99.90
2487;DHT22;1254;49.144;8.212;2022-08-04T11:22:08;35.50;99.90
2487;DHT22;1254;49.144;8.212;2022-08-04T11:30:24;36.50;99.90
2487;DHT22;1254;49.144;8.212;2022-08-04T11:35:43;36.80;99.90
2487;DHT22;1254;49.144;8.212;2022-08-04T11:38:20;37.50;99.90
2487;DHT22;1254;49.144;8.212;2022-08-04T11:40:52;38.30;99.90
2487;DHT22;1254;49.144;8.212;2022-08-04T11:43:26;38.80;99.90
2487;DHT22;1254;49.144;8.212;2022-08-04T11:46:02;38.50;99.90
2487;DHT22;1254;49.144;8.212;2022-08-04T11:48:36;38.30;99.90
2487;DHT22;1254;49.144;8.212;2022-08-04T11:51:05;38.40;99.90
2487;DHT22;1254;49.144;8.212;2022-08-04T11:53:34;39.00;99.90
2487;DHT22;1254;49.144;8.212;2022-08-04T11:56:05;39.00;99.90
2487;DHT22;1254;49.144;8.212;2022-08-04T11:58:32;39.10;99.90
2487;DHT22;1254;49.144;8.212;2022-08-04T12:01:09;38.80;99.90
2487;DHT22;1254;49.144;8.212;2022-08-04T12:17:24;39.70;99.90
2487;DHT22;1254;49.144;8.212;2022-08-04T12:19:57;39.90;99.90
2487;DHT22;1254;49.144;8.212;2022-08-04T12:22:28;38.90;99.90
2487;DHT22;1254;49.144;8.212;2022-08-04T12:25:02;39.60;99.90
2487;DHT22;1254;49.144;8.212;2022-08-04T12:27:54;40.10;99.90
2487;DHT22;1254;49.144;8.212;2022-08-04T12:30:19;39.90;99.90
2487;DHT22;1254;49.144;8.212;2022-08-04T12:37:59;40.80;99.90
2487;DHT22;1254;49.144;8.212;2022-08-04T12:40:50;41.70;99.90
2487;DHT22;1254;49.144;8.212;2022-08-04T12:43:28;42.70;99.90
2487;DHT22;1254;49.144;8.212;2022-08-04T12:45:59;42.80;99.90
2487;DHT22;1254;49.144;8.212;2022-08-04T12:48:28;40.70;99.90
2487;DHT22;1254;49.144;8.212;2022-08-04T12:50:57;40.00;99.90
2487;DHT22;1254;49.144;8.212;2022-08-04T12:53:31;40.20;99.90
2487;DHT22;1254;49.144;8.212;2022-08-04T12:55:59;39.80;99.90
2487;DHT22;1254;49.144;8.212;2022-08-04T12:58:28;39.20;99.90
2487;DHT22;1254;49.144;8.212;2022-08-04T13:01:16;39.80;99.90
2487;DHT22;1254;49.144;8.212;2022-08-04T13:06:27;40.70;99.90
2487;DHT22;1254;49.144;8.212;2022-08-04T13:08:54;42.50;99.90
2487;DHT22;1254;49.144;8.212;2022-08-04T13:11:21;42.90;99.90
2487;DHT22;1254;49.144;8.212;2022-08-04T13:13:53;41.40;99.90
2487;DHT22;1254;49.144;8.212;2022-08-04T13:16:30;41.80;99.90
2487;DHT22;1254;49.144;8.212;2022-08-04T13:18:58;40.90;99.90
2487;DHT22;1254;49.144;8.212;2022-08-04T13:21:27;41.80;99.90
2487;DHT22;1254;49.144;8.212;2022-08-04T13:23:57;41.90;99.90
2487;DHT22;1254;49.144;8.212;2022-08-04T13:26:25;42.50;99.90
2487;DHT22;1254;49.144;8.212;2022-08-04T13:28:53;42.00;99.90
2487;DHT22;1254;49.144;8.212;2022-08-04T13:31:22;40.90;99.90
2487;DHT22;1254;49.144;8.212;2022-08-04T13:33:51;42.00;99.90
2487;DHT22;1254;49.144;8.212;2022-08-04T13:36:22;41.80;99.90
2487;DHT22;1254;49.144;8.212;2022-08-04T13:38:52;42.40;99.90
2487;DHT22;1254;49.144;8.212;2022-08-04T13:41:19;44.00;99.90
2487;DHT22;1254;49.144;8.212;2022-08-04T13:43:49;44.20;99.90
2487;DHT22;1254;49.144;8.212;2022-08-04T13:46:22;44.10;1.00
2487;DHT22;1254;49.144;8.212;2022-08-04T13:48:49;44.40;1.00
2487;DHT22;1254;49.144;8.212;2022-08-04T13:51:20;43.40;1.00
2487;DHT22;1254;49.144;8.212;2022-08-04T13:53:58;44.70;1.00
2487;DHT22;1254;49.144;8.212;2022-08-04T13:56:37;42.70;1.00
2487;DHT22;1254;49.144;8.212;2022-08-04T13:59:09;42.60;1.00
2487;DHT22;1254;49.144;8.212;2022-08-04T14:01:41;42.40;1.00
2487;DHT22;1254;49.144;8.212;2022-08-04T14:04:17;41.80;1.00
2487;DHT22;1254;49.144;8.212;2022-08-04T14:09:27;42.20;1.00
2487;DHT22;1254;49.144;8.212;2022-08-04T14:12:10;41.10;1.00
2487;DHT22;1254;49.144;8.212;2022-08-04T14:14:49;41.30;1.00
2487;DHT22;1254;49.144;8.212;2022-08-04T14:17:17;41.10;1.00
2487;DHT22;1254;49.144;8.212;2022-08-04T14:19:54;41.70;1.00
2487;DHT22;1254;49.144;8.212;2022-08-04T14:27:51;42.30;1.00
2487;DHT22;1254;49.144;8.212;2022-08-04T14:32:57;42.90;1.00
2487;DHT22;1254;49.144;8.212;2022-08-04T14:35:25;42.00;1.00
2487;DHT22;1254;49.144;8.212;2022-08-04T14:37:53;42.70;1.00
2487;DHT22;1254;49.144;8.212;2022-08-04T14:40:25;42.50;1.00
2487;DHT22;1254;49.144;8.212;2022-08-04T14:42:52;42.70;1.00
2487;DHT22;1254;49.144;8.212;2022-08-04T14:45:27;43.10;1.00
2487;DHT22;1254;49.144;8.212;2022-08-04T14:47:54;43.90;1.00
2487;DHT22;1254;49.144;8.212;2022-08-04T14:50:39;45.20;1.00
2487;DHT22;1254;49.144;8.212;2022-08-04T14:53:11;43.20;1.00
2487;DHT22;1254;49.144;8.212;2022-08-04T14:55:41;42.30;1.00
2487;DHT22;1254;49.144;8.212;2022-08-04T14:58:19;41.90;1.00
2487;DHT22;1254;49.144;8.212;2022-08-04T15:00:47;42.20;1.00
2487;DHT22;1254;49.144;8.212;2022-08-04T15:03:14;44.00;1.00
2487;DHT22;1254;49.144;8.212;2022-08-04T15:05:43;43.20;1.00
2487;DHT22;1254;49.144;8.212;2022-08-04T15:08:12;43.00;1.00
2487;DHT22;1254;49.144;8.212;2022-08-04T15:10:39;42.90;1.00
2487;DHT22;1254;49.144;8.212;2022-08-04T15:13:06;43.10;1.00
2487;DHT22;1254;49.144;8.212;2022-08-04T15:15:33;42.90;1.00
2487;DHT22;1254;49.144;8.212;2022-08-04T15:18:00;43.20;1.00
2487;DHT22;1254;49.144;8.212;2022-08-04T15:20:27;42.40;1.00
2487;DHT22;1254;49.144;8.212;2022-08-04T15:22:54;42.50;1.00
2487;DHT22;1254;49.144;8.212;2022-08-04T15:25:21;43.60;1.00
2487;DHT22;1254;49.144;8.212;2022-08-04T15:27:49;44.20;1.00
2487;DHT22;1254;49.144;8.212;2022-08-04T15:30:17;45.10;1.00
2487;DHT22;1254;49.144;8.212;2022-08-04T15:32:50;43.40;1.00
2487;DHT22;1254;49.144;8.212;2022-08-04T15:35:19;43.10;1.00
2487;DHT22;1254;49.144;8.212;2022-08-04T15:38:05;43.40;1.00
2487;DHT22;1254;49.144;8.212;2022-08-04T15:43:19;44.10;1.00
2487;DHT22;1254;49.144;8.212;2022-08-04T15:45:50;43.60;1.00
2487;DHT22;1254;49.144;8.212;2022-08-04T15:53:24;44.90;1.00
2487;DHT22;1254;49.144;8.212;2022-08-04T15:55:51;42.70;1.00
2487;DHT22;1254;49.144;8.212;2022-08-04T15:58:19;41.90;1.00
2487;DHT22;1254;49.144;8.212;2022-08-04T16:19:25;43.70;1.00
2487;DHT22;1254;49.144;8.212;2022-08-04T16:21:58;42.30;1.00
2487;DHT22;1254;49.144;8.212;2022-08-04T16:24:38;43.40;1.00
2487;DHT22;1254;49.144;8.212;2022-08-04T16:27:07;44.20;1.00
2487;DHT22;1254;49.144;8.212;2022-08-04T16:29:41;44.20;1.00
2487;DHT22;1254;49.144;8.212;2022-08-04T16:32:17;42.90;1.00
2487;DHT22;1254;49.144;8.212;2022-08-04T16:34:54;41.50;1.00
2487;DHT22;1254;49.144;8.212;2022-08-04T16:37:35;40.70;1.00
2487;DHT22;1254;49.144;8.212;2022-08-04T16:42:49;39.50;1.00
2487;DHT22;1254;49.144;8.212;2022-08-04T16:45:16;39.30;1.00
2487;DHT22;1254;49.144;8.212;2022-08-04T16:50:19;38.80;99.90
2487;DHT22;1254;49.144;8.212;2022-08-04T16:52:49;38.50;99.90
2487;DHT22;1254;49.144;8.212;2022-08-04T16:55:21;38.70;99.90
2487;DHT22;1254;49.144;8.212;2022-08-04T16:57:50;39.30;99.90
2487;DHT22;1254;49.144;8.212;2022-08-04T17:00:17;39.80;99.90
2487;DHT22;1254;49.144;8.212;2022-08-04T17:02:52;40.70;99.90
2487;DHT22;1254;49.144;8.212;2022-08-04T17:05:25;41.50;99.90
2487;DHT22;1254;49.144;8.212;2022-08-04T17:07:53;41.70;99.90
2487;DHT22;1254;49.144;8.212;2022-08-04T17:10:38;41.30;99.90
2487;DHT22;1254;49.144;8.212;2022-08-04T17:13:27;41.10;99.90
2487;DHT22;1254;49.144;8.212;2022-08-04T17:15:56;41.50;99.90
2487;DHT22;1254;49.144;8.212;2022-08-04T17:18:28;40.40;99.90
2487;DHT22;1254;49.144;8.212;2022-08-04T17:20:57;39.70;99.90
2487;DHT22;1254;49.144;8.212;2022-08-04T17:26:04;39.30;99.90
2487;DHT22;1254;49.144;8.212;2022-08-04T17:28:31;39.30;99.90
2487;DHT22;1254;49.144;8.212;2022-08-04T17:31:00;39.60;99.90
2487;DHT22;1254;49.144;8.212;2022-08-04T17:33:27;38.70;99.90
2487;DHT22;1254;49.144;8.212;2022-08-04T17:35:58;38.10;99.90
2487;DHT22;1254;49.144;8.212;2022-08-04T17:38:34;37.80;99.90
2487;DHT22;1254;49.144;8.212;2022-08-04T17:41:05;37.60;99.90
2487;DHT22;1254;49.144;8.212;2022-08-04T17:43:47;37.40;99.90
2487;DHT22;1254;49.144;8.212;2022-08-04T17:48:56;37.20;99.90
2487;DHT22;1254;49.144;8.212;2022-08-04T17:51:31;37.20;99.90
2487;DHT22;1254;49.144;8.212;2022-08-04T17:53:58;37.00;99.90
2487;DHT22;1254;49.144;8.212;2022-08-04T17:56:32;36.90;99.90
2487;DHT22;1254;49.144;8.212;2022-08-04T17:59:12;36.80;99.90
2487;DHT22;1254;49.144;8.212;2022-08-04T18:01:54;36.50;99.90
2487;DHT22;1254;49.144;8.212;2022-08-04T18:04:26;36.30;99.90
2487;DHT22;1254;49.144;8.212;2022-08-04T18:06:55;36.00;99.90
2487;DHT22;1254;49.144;8.212;2022-08-04T18:09:56;35.60;99.90
2487;DHT22;1254;49.144;8.212;2022-08-04T18:14:57;35.20;99.90
2487;DHT22;1254;49.144;8.212;2022-08-04T18:20:04;34.90;99.90
2487;DHT22;1254;49.144;8.212;2022-08-04T18:22:31;34.70;99.90
2487;DHT22;1254;49.144;8.212;2022-08-04T18:24:57;34.50;99.90
2487;DHT22;1254;49.144;8.212;2022-08-04T18:27:26;34.40;99.90
2487;DHT22;1254;49.144;8.212;2022-08-04T18:29:53;34.10;99.90
2487;DHT22;1254;49.144;8.212;2022-08-04T18:32:20;33.90;99.90
2487;DHT22;1254;49.144;8.212;2022-08-04T18:34:49;33.60;99.90
2487;DHT22;1254;49.144;8.212;2022-08-04T18:37:16;33.40;99.90
2487;DHT22;1254;49.144;8.212;2022-08-04T18:39:43;33.40;99.90
2487;DHT22;1254;49.144;8.212;2022-08-04T18:42:10;33.20;99.90
2487;DHT22;1254;49.144;8.212;2022-08-04T18:44:39;32.90;99.90
2487;DHT22;1254;49.144;8.212;2022-08-04T18:47:06;32.70;99.90
2487;DHT22;1254;49.144;8.212;2022-08-04T18:49:32;32.70;99.90
2487;DHT22;1254;49.144;8.212;2022-08-04T18:51:59;32.60;99.90
2487;DHT22;1254;49.144;8.212;2022-08-04T18:54:25;31.90;99.90
2487;DHT22;1254;49.144;8.212;2022-08-04T18:56:53;31.80;99.90
2487;DHT22;1254;49.144;8.212;2022-08-04T18:59:20;31.80;99.90
2487;DHT22;1254;49.144;8.212;2022-08-04T19:01:46;31.90;99.90
2487;DHT22;1254;49.144;8.212;2022-08-04T19:04:13;32.00;99.90
2487;DHT22;1254;49.144;8.212;2022-08-04T19:06:40;32.00;99.90
2487;DHT22;1254;49.144;8.212;2022-08-04T19:09:07;31.90;99.90
2487;DHT22;1254;49.144;8.212;2022-08-04T19:11:34;31.90;99.90
2487;DHT22;1254;49.144;8.212;2022-08-04T19:14:01;31.90;99.90
2487;DHT22;1254;49.144;8.212;2022-08-04T19:16:29;31.80;99.90
2487;DHT22;1254;49.144;8.212;2022-08-04T19:19:02;31.70;99.90
2487;DHT22;1254;49.144;8.212;2022-08-04T19:21:29;31.50;99.90
2487;DHT22;1254;49.144;8.212;2022-08-04T19:23:55;31.40;99.90
2487;DHT22;1254;49.144;8.212;2022-08-04T19:26:22;31.20;99.90
2487;DHT22;1254;49.144;8.212;2022-08-04T19:28:51;31.20;99.90
2487;DHT22;1254;49.144;8.212;2022-08-04T19:31:18;31.10;99.90
2487;DHT22;1254;49.144;8.212;2022-08-04T19:33:45;31.00;99.90
2487;DHT22;1254;49.144;8.212;2022-08-04T19:36:11;31.00;99.90
2487;DHT22;1254;49.144;8.212;2022-08-04T19:38:38;30.90;99.90
2487;DHT22;1254;49.144;8.212;2022-08-04T19:41:06;30.90;99.90
2487;DHT22;1254;49.144;8.212;2022-08-04T19:43:33;30.80;99.90
2487;DHT22;1254;49.144;8.212;2022-08-04T19:45:59;30.70;99.90
2487;DHT22;1254;49.144;8.212;2022-08-04T19:48:26;30.50;99.90
2487;DHT22;1254;49.144;8.212;2022-08-04T19:50:52;30.10;99.90
2487;DHT22;1254;49.144;8.212;2022-08-04T19:53:19;29.80;99.90
2487;DHT22;1254;49.144;8.212;2022-08-04T19:55:47;29.70;99.90
2487;DHT22;1254;49.144;8.212;2022-08-04T19:58:13;29.60;99.90
2487;DHT22;1254;49.144;8.212;2022-08-04T20:00:40;29.30;99.90
2487;DHT22;1254;49.144;8.212;2022-08-04T20:03:08;29.00;99.90
2487;DHT22;1254;49.144;8.212;2022-08-04T20:05:34;29.30;99.90
2487;DHT22;1254;49.144;8.212;2022-08-04T20:08:01;29.20;99.90
2487;DHT22;1254;49.144;8.212;2022-08-04T20:10:27;29.40;99.90
2487;DHT22;1254;49.144;8.212;2022-08-04T20:12:54;29.50;99.90
2487;DHT22;1254;49.144;8.212;2022-08-04T20:15:22;29.50;99.90
2487;DHT22;1254;49.144;8.212;2022-08-04T20:17:49;29.50;99.90
2487;DHT22;1254;49.144;8.212;2022-08-04T20:20:15;29.40;99.90
2487;DHT22;1254;49.144;8.212;2022-08-04T20:22:42;29.30;99.90
2487;DHT22;1254;49.144;8.212;2022-08-04T20:25:08;29.30;99.90
2487;DHT22;1254;49.144;8.212;2022-08-04T20:27:36;29.20;99.90
2487;DHT22;1254;49.144;8.212;2022-08-04T20:30:06;29.30;99.90
2487;DHT22;1254;49.144;8.212;2022-08-04T20:32:32;29.40;99.90
2487;DHT22;1254;49.144;8.212;2022-08-04T20:34:59;29.40;99.90
2487;DHT22;1254;49.144;8.212;2022-08-04T20:37:26;29.60;99.90
2487;DHT22;1254;49.144;8.212;2022-08-04T20:39:56;29.70;99.90
2487;DHT22;1254;49.144;8.212;2022-08-04T20:42:24;29.80;99.90
2487;DHT22;1254;49.144;8.212;2022-08-04T20:44:51;29.80;99.90
2487;DHT22;1254;49.144;8.212;2022-08-04T20:47:18;29.80;99.90
2487;DHT22;1254;49.144;8.212;2022-08-04T20:49:44;29.70;99.90
2487;DHT22;1254;49.144;8.212;2022-08-04T20:52:12;29.80;99.90
2487;DHT22;1254;49.144;8.212;2022-08-04T20:54:39;29.70;99.90
2487;DHT22;1254;49.144;8.212;2022-08-04T20:57:07;29.60;99.90
2487;DHT22;1254;49.144;8.212;2022-08-04T20:59:33;29.40;99.90
2487;DHT22;1254;49.144;8.212;2022-08-04T21:02:04;29.50;99.90
2487;DHT22;1254;49.144;8.212;2022-08-04T21:04:31;29.60;99.90
2487;DHT22;1254;49.144;8.212;2022-08-04T21:07:04;29.60;99.90
2487;DHT22;1254;49.144;8.212;2022-08-04T21:09:30;29.20;99.90
2487;DHT22;1254;49.144;8.212;2022-08-04T21:11:57;29.20;99.90
2487;DHT22;1254;49.144;8.212;2022-08-04T21:14:24;29.10;99.90
2487;DHT22;1254;49.144;8.212;2022-08-04T21:16:51;29.00;99.90
2487;DHT22;1254;49.144;8.212;2022-08-04T21:19:18;29.00;99.90